createdAt,value
2023-11-04T00:01:50.566Z,0.30
2023-11-04T00:04:18.917Z,0.50
2023-11-04T00:06:47.448Z,0.30
2023-11-04T00:09:19.570Z,0.40
2023-11-04T00:11:48.029Z,0.20
2023-11-04T00:14:16.008Z,0.40
2023-11-04T00:16:44.124Z,0.22
2023-11-04T00:19:12.202Z,0.10
2023-11-04T00:21:43.348Z,0.32
2023-11-04T00:24:11.960Z,0.40
2023-11-04T00:26:40.435Z,0.50
2023-11-04T00:29:08.639Z,0.22
2023-11-04T00:31:36.825Z,0.50
2023-11-04T00:34:24.737Z,0.55
2023-11-04T00:37:12.790Z,0.30
2023-11-04T00:40:07.292Z,0.28
2023-11-04T00:42:55.401Z,0.40
2023-11-04T00:45:43.365Z,0.35
2023-11-04T00:51:37.853Z,0.20
2023-11-04T00:54:25.903Z,0.38
2023-11-04T00:57:14.555Z,0.20
2023-11-04T01:00:02.556Z,0.60
2023-11-04T01:02:50.642Z,0.20
2023-11-04T01:05:38.697Z,0.47
2023-11-04T01:08:26.603Z,0.32
2023-11-04T01:11:14.588Z,0.75
2023-11-04T01:14:02.489Z,0.20
2023-11-04T01:16:50.315Z,0.40
2023-11-04T01:19:38.322Z,0.20
2023-11-04T01:22:26.340Z,0.20
2023-11-04T01:25:14.400Z,0.52
2023-11-04T01:28:02.341Z,0.40
2023-11-04T01:30:50.297Z,0.45
2023-11-04T01:33:38.601Z,0.38
2023-11-04T01:36:26.675Z,0.32
2023-11-04T01:39:15.682Z,0.45
2023-11-04T01:42:07.600Z,0.25
2023-11-04T01:44:55.591Z,0.55
2023-11-04T01:47:43.977Z,0.20
2023-11-04T01:50:50.548Z,0.40
2023-11-04T01:53:39.845Z,0.32
2023-11-04T01:56:40.662Z,0.10
2023-11-04T01:59:29.604Z,0.38
2023-11-04T02:02:21.108Z,0.40
2023-11-04T02:05:09.959Z,0.20
2023-11-04T02:07:57.951Z,0.35
2023-11-04T02:10:46.080Z,0.30
2023-11-04T02:13:34.095Z,0.25
2023-11-04T02:16:22.302Z,0.20
2023-11-04T02:19:10.659Z,0.38
2023-11-04T02:21:58.743Z,0.50
2023-11-04T02:24:46.722Z,0.60
2023-11-04T02:27:34.636Z,0.03
2023-11-04T02:30:22.684Z,0.30
2023-11-04T02:33:10.654Z,0.50
2023-11-04T02:35:58.777Z,0.25
2023-11-04T02:38:46.684Z,0.25
2023-11-04T02:44:58.819Z,0.40
2023-11-04T02:47:46.839Z,0.10
2023-11-04T02:50:34.855Z,0.50
2023-11-04T02:53:22.804Z,0.40
2023-11-04T02:56:11.095Z,0.57
2023-11-04T02:59:17.683Z,0.40
2023-11-04T03:02:08.684Z,0.40
2023-11-04T03:04:56.667Z,0.32
2023-11-04T03:07:44.873Z,0.65
2023-11-04T03:10:32.867Z,0.52
2023-11-04T03:13:21.020Z,0.20
2023-11-04T03:16:09.337Z,0.40
2023-11-04T03:18:57.362Z,0.77
2023-11-04T03:21:45.750Z,0.38
2023-11-04T03:24:33.745Z,0.28
2023-11-04T03:27:22.003Z,0.32
2023-11-04T03:30:10.252Z,0.40
2023-11-04T03:32:59.249Z,0.30
2023-11-04T03:35:47.083Z,0.47
2023-11-04T03:38:35.697Z,0.60
2023-11-04T03:41:24.070Z,0.60
2023-11-04T03:44:11.956Z,0.50
2023-11-04T03:46:58.321Z,0.40
2023-11-04T03:49:46.509Z,0.20
2023-11-04T03:52:34.416Z,0.35
2023-11-04T03:55:22.667Z,0.65
2023-11-04T03:58:10.573Z,0.32
2023-11-04T04:00:58.587Z,0.20
2023-11-04T04:03:46.891Z,0.32
2023-11-04T04:06:35.408Z,0.40
2023-11-04T04:09:23.326Z,0.43
2023-11-04T04:12:11.245Z,0.40
2023-11-04T04:15:17.911Z,0.40
2023-11-04T04:18:05.909Z,0.50
2023-11-04T04:20:53.973Z,0.50
2023-11-04T04:23:41.865Z,0.40
2023-11-04T04:26:29.834Z,0.68
2023-11-04T04:32:23.152Z,0.60
2023-11-04T04:35:11.062Z,0.40
2023-11-04T04:37:58.878Z,0.40
2023-11-04T04:40:46.814Z,0.45
2023-11-04T04:43:34.678Z,0.60
2023-11-04T04:46:22.582Z,0.73
2023-11-04T04:49:11.280Z,0.90
2023-11-04T04:52:18.828Z,1.10
2023-11-04T04:55:07.481Z,0.68
2023-11-04T04:57:56.630Z,0.40
2023-11-04T05:00:44.636Z,0.57
2023-11-04T05:03:32.922Z,0.55
2023-11-04T05:06:21.419Z,0.40
2023-11-04T05:09:09.538Z,0.60
2023-11-04T05:11:57.808Z,0.82
2023-11-04T05:14:45.611Z,0.60
2023-11-04T05:17:33.786Z,0.68
2023-11-04T05:20:21.660Z,0.55
2023-11-04T05:23:09.525Z,0.52
2023-11-04T05:25:57.540Z,0.93
2023-11-04T05:28:45.676Z,0.70
2023-11-04T05:31:33.556Z,0.65
2023-11-04T05:34:21.623Z,0.93
2023-11-04T05:37:09.476Z,1.00
2023-11-04T05:39:57.427Z,1.05
2023-11-04T05:42:45.495Z,1.20
2023-11-04T05:45:33.658Z,1.08
2023-11-04T05:48:22.614Z,1.58
2023-11-04T05:51:10.730Z,1.23
2023-11-04T05:53:58.650Z,1.20
2023-11-04T05:56:46.482Z,0.90
2023-11-04T05:59:53.019Z,0.90
2023-11-04T06:02:41.654Z,0.85
2023-11-04T06:05:48.582Z,1.30
2023-11-04T06:08:37.487Z,0.80
2023-11-04T06:11:25.483Z,0.88
2023-11-04T06:14:32.212Z,0.30
2023-11-04T06:17:20.082Z,0.38
2023-11-04T06:20:08.638Z,0.60
2023-11-04T06:22:56.485Z,0.82
2023-11-04T06:25:44.344Z,0.80
2023-11-04T06:28:32.210Z,0.85
2023-11-04T06:31:23.857Z,0.68
2023-11-04T06:34:12.818Z,0.93
2023-11-04T06:37:03.680Z,0.80
2023-11-04T06:39:51.711Z,0.80
2023-11-04T06:42:39.589Z,0.57
2023-11-04T06:45:27.584Z,0.70
2023-11-04T06:48:15.515Z,0.85
2023-11-04T06:51:04.014Z,1.08
2023-11-04T06:53:32.424Z,1.02
2023-11-04T06:56:01.593Z,1.35
2023-11-04T07:01:33.160Z,0.95
2023-11-04T07:04:01.376Z,1.15
2023-11-04T07:06:29.563Z,0.65
2023-11-04T07:08:57.733Z,1.05
2023-11-04T07:11:26.060Z,1.48
2023-11-04T07:13:55.752Z,1.05
2023-11-04T07:16:23.856Z,1.05
2023-11-04T07:18:52.219Z,1.20
2023-11-04T07:21:20.703Z,1.02
2023-11-04T07:23:48.753Z,1.13
2023-11-04T07:26:16.720Z,0.82
2023-11-04T07:28:46.927Z,1.00
2023-11-04T07:31:16.916Z,1.45
2023-11-04T07:33:45.412Z,1.48
2023-11-04T07:36:13.979Z,1.15
2023-11-04T07:38:42.013Z,1.35
2023-11-04T07:41:11.414Z,2.00
2023-11-04T07:43:39.775Z,1.27
2023-11-04T07:46:07.869Z,1.50
2023-11-04T07:48:36.130Z,1.50
2023-11-04T07:51:04.532Z,1.25
2023-11-04T07:53:32.591Z,1.35
2023-11-04T07:56:00.602Z,1.45
2023-11-04T07:58:28.540Z,1.30
2023-11-04T08:00:56.618Z,1.05
2023-11-04T08:03:24.837Z,0.95
2023-11-04T08:05:53.748Z,0.90
2023-11-04T08:08:21.845Z,0.88
2023-11-04T08:10:49.990Z,0.82
2023-11-04T08:13:17.961Z,0.80
2023-11-04T08:15:46.146Z,1.15
2023-11-04T08:18:14.243Z,1.38
2023-11-04T08:23:29.801Z,0.68
2023-11-04T08:25:57.813Z,0.98
2023-11-04T08:28:26.571Z,0.75
2023-11-04T08:30:54.626Z,1.38
2023-11-04T08:33:22.693Z,1.10
2023-11-04T08:35:50.737Z,1.00
2023-11-04T08:38:19.428Z,1.42
2023-11-04T08:40:47.549Z,0.88
2023-11-04T08:43:15.652Z,1.33
2023-11-04T08:45:43.892Z,1.30
2023-11-04T08:48:12.077Z,0.70
2023-11-04T08:50:40.234Z,0.98
2023-11-04T08:53:08.253Z,0.88
2023-11-04T08:55:36.279Z,1.02
2023-11-04T08:58:04.571Z,1.08
2023-11-04T09:00:32.769Z,1.05
2023-11-04T09:03:03.643Z,1.13
2023-11-04T09:05:34.170Z,1.02
2023-11-04T09:08:03.023Z,0.60
2023-11-04T09:10:31.368Z,0.65
2023-11-04T09:12:59.553Z,1.83
2023-11-04T09:15:28.906Z,1.10
2023-11-04T09:17:57.130Z,0.88
2023-11-04T09:20:25.191Z,0.73
2023-11-04T09:22:53.383Z,0.45
2023-11-04T09:25:22.100Z,0.70
2023-11-04T09:27:51.206Z,0.75
2023-11-04T09:30:19.451Z,0.75
2023-11-04T09:32:47.602Z,0.50
2023-11-04T09:35:15.733Z,0.90
2023-11-04T09:37:44.683Z,0.43
2023-11-04T09:40:13.937Z,0.52
2023-11-04T09:43:00.398Z,0.68
2023-11-04T09:45:28.513Z,0.80
2023-11-04T09:47:57.633Z,0.80
2023-11-04T09:50:28.329Z,0.73
2023-11-04T09:53:04.212Z,0.70
2023-11-04T09:55:32.352Z,0.50
2023-11-04T09:58:00.930Z,0.60
2023-11-04T10:00:48.043Z,0.80
2023-11-04T10:03:17.780Z,0.80
2023-11-04T10:05:46.590Z,0.85
2023-11-04T10:08:15.130Z,0.73
2023-11-04T10:10:43.285Z,1.10
2023-11-04T10:13:11.345Z,0.50
2023-11-04T10:15:39.488Z,0.52
2023-11-04T10:18:10.375Z,0.90
2023-11-04T10:20:38.636Z,0.70
2023-11-04T10:23:06.835Z,0.65
2023-11-04T10:25:34.852Z,1.02
2023-11-04T10:28:02.892Z,0.60
2023-11-04T10:30:31.064Z,0.52
2023-11-04T10:33:05.018Z,0.40
2023-11-04T10:35:51.729Z,1.08
2023-11-04T10:38:21.049Z,0.65
2023-11-04T10:41:08.734Z,0.95
2023-11-04T10:44:17.031Z,0.55
2023-11-04T10:47:00.047Z,0.70
2023-11-04T10:49:30.766Z,0.77
2023-11-04T10:52:10.355Z,0.55
2023-11-04T10:54:49.555Z,0.52
2023-11-04T10:57:32.176Z,0.85
2023-11-04T11:00:14.909Z,0.82
2023-11-04T11:02:45.189Z,0.85
2023-11-04T11:05:14.798Z,0.57
2023-11-04T11:07:46.384Z,0.43
2023-11-04T11:10:16.427Z,0.70
2023-11-04T11:12:53.327Z,0.70
2023-11-04T11:15:21.787Z,0.85
2023-11-04T11:18:02.483Z,0.80
2023-11-04T11:20:36.345Z,0.50
2023-11-04T11:23:14.992Z,0.75
2023-11-04T11:25:44.623Z,0.40
2023-11-04T11:28:24.069Z,0.50
2023-11-04T11:30:59.804Z,0.63
2023-11-04T11:33:31.305Z,0.50
2023-11-04T11:36:06.680Z,0.85
2023-11-04T11:38:35.969Z,0.50
2023-11-04T11:41:09.668Z,0.85
2023-11-04T11:43:38.090Z,0.30
2023-11-04T11:46:07.227Z,0.52
2023-11-04T11:48:42.530Z,0.40
2023-11-04T11:51:12.848Z,0.90
2023-11-04T11:53:48.031Z,1.08
2023-11-04T11:56:16.491Z,0.77
2023-11-04T11:58:46.648Z,0.63
2023-11-04T12:01:15.945Z,0.75
2023-11-04T12:03:44.141Z,0.90
2023-11-04T12:06:12.887Z,0.63
2023-11-04T12:08:41.058Z,1.02
2023-11-04T12:11:30.111Z,0.80
2023-11-04T12:14:01.496Z,1.00
2023-11-04T12:16:31.283Z,0.85
2023-11-04T12:19:17.909Z,0.80
2023-11-04T12:21:46.205Z,0.73
2023-11-04T12:24:33.504Z,0.70
2023-11-04T12:27:01.614Z,0.70
2023-11-04T12:29:30.722Z,0.40
2023-11-04T12:31:59.265Z,0.57
2023-11-04T12:34:27.366Z,0.80
2023-11-04T12:36:56.348Z,0.95
2023-11-04T12:39:24.700Z,0.98
2023-11-04T12:41:53.442Z,0.70
2023-11-04T12:44:29.389Z,0.82
2023-11-04T12:46:59.799Z,0.77
2023-11-04T12:49:27.962Z,0.82
2023-11-04T12:51:56.093Z,1.00
2023-11-04T12:54:24.257Z,0.70
2023-11-04T12:56:52.368Z,0.80
2023-11-04T12:59:39.175Z,0.85
2023-11-04T13:02:08.310Z,0.90
2023-11-04T13:04:36.368Z,1.00
2023-11-04T13:07:04.728Z,0.93
2023-11-04T13:09:32.846Z,0.55
2023-11-04T13:12:01.880Z,0.60
2023-11-04T13:14:29.944Z,0.70
2023-11-04T13:16:59.113Z,0.80
2023-11-04T13:19:27.248Z,0.43
2023-11-04T13:22:13.943Z,0.73
2023-11-04T13:24:42.078Z,0.45
2023-11-04T13:27:28.790Z,0.82
2023-11-04T13:29:57.480Z,0.80
2023-11-04T13:32:25.587Z,0.35
2023-11-04T13:34:54.050Z,0.55
2023-11-04T13:37:22.724Z,0.50
2023-11-04T13:39:51.109Z,0.80
2023-11-04T13:42:19.059Z,0.70
2023-11-04T13:44:47.143Z,0.80
2023-11-04T13:47:19.430Z,0.93
2023-11-04T13:49:47.847Z,0.60
2023-11-04T13:52:15.968Z,1.27
2023-11-04T13:54:44.012Z,0.75
2023-11-04T13:57:12.068Z,0.95
2023-11-04T13:59:40.280Z,1.10
2023-11-04T14:02:08.409Z,0.93
2023-11-04T14:04:36.646Z,0.73
2023-11-04T14:07:05.316Z,1.13
2023-11-04T14:12:20.584Z,0.63
2023-11-04T14:14:49.115Z,0.75
2023-11-04T14:17:17.292Z,0.63
2023-11-04T14:19:45.388Z,0.45
2023-11-04T14:22:13.541Z,1.00
2023-11-04T14:24:42.541Z,0.47
2023-11-04T14:27:29.557Z,0.50
2023-11-04T14:30:16.455Z,0.77
2023-11-04T14:32:44.986Z,0.90
2023-11-04T14:35:13.224Z,0.80
2023-11-04T14:37:42.207Z,0.52
2023-11-04T14:40:18.267Z,0.52
2023-11-04T14:43:04.943Z,0.52
2023-11-04T14:45:34.505Z,0.90
2023-11-04T14:48:02.781Z,1.05
2023-11-04T14:50:30.919Z,1.00
2023-11-04T14:52:58.905Z,0.68
2023-11-04T14:55:27.686Z,0.82
2023-11-04T14:57:55.697Z,0.80
2023-11-04T15:00:23.857Z,0.82
2023-11-04T15:02:53.020Z,0.75
2023-11-04T15:05:21.299Z,0.70
2023-11-04T15:07:49.457Z,0.90
2023-11-04T15:10:35.866Z,0.80
2023-11-04T15:13:04.167Z,0.73
2023-11-04T15:15:35.115Z,0.60
2023-11-04T15:18:06.965Z,0.68
2023-11-04T15:20:35.504Z,0.47
2023-11-04T15:23:04.609Z,0.88
2023-11-04T15:25:32.757Z,0.70
2023-11-04T15:28:00.816Z,1.23
2023-11-04T15:30:28.908Z,0.52
2023-11-04T15:32:57.448Z,1.63
2023-11-04T15:35:25.576Z,1.00
2023-11-04T15:37:53.574Z,0.77
2023-11-04T15:40:21.636Z,0.77
2023-11-04T15:42:49.750Z,0.82
2023-11-04T15:45:36.402Z,0.90
2023-11-04T15:48:05.557Z,0.50
2023-11-04T15:50:34.880Z,0.93
2023-11-04T15:53:03.679Z,0.93
2023-11-04T15:55:31.662Z,0.98
2023-11-04T15:57:59.951Z,0.98
2023-11-04T16:00:28.792Z,1.05
2023-11-04T16:03:15.801Z,1.30
2023-11-04T16:05:43.977Z,0.88
2023-11-04T16:08:12.392Z,1.10
2023-11-04T16:10:40.473Z,0.60
2023-11-04T16:13:10.898Z,0.93
2023-11-04T16:15:39.028Z,0.77
2023-11-04T16:18:07.229Z,0.50
2023-11-04T16:20:35.502Z,0.90
2023-11-04T16:23:05.835Z,0.82
2023-11-04T16:25:34.066Z,0.63
2023-11-04T16:28:02.115Z,1.00
2023-11-04T16:30:30.289Z,0.82
2023-11-04T16:32:58.626Z,0.80
2023-11-04T16:35:26.916Z,0.60
2023-11-04T16:37:54.892Z,0.63
2023-11-04T16:40:23.092Z,0.65
2023-11-04T16:42:51.205Z,0.73
2023-11-04T16:45:19.211Z,1.08
2023-11-04T16:47:47.388Z,1.00
2023-11-04T16:50:34.020Z,0.90
2023-11-04T16:53:02.047Z,0.93
2023-11-04T16:55:30.004Z,0.68
2023-11-04T16:57:58.302Z,1.20
2023-11-04T17:03:12.049Z,0.73
2023-11-04T17:05:40.548Z,0.60
2023-11-04T17:08:09.244Z,0.90
2023-11-04T17:10:37.303Z,1.48
2023-11-04T17:13:05.370Z,1.52
2023-11-04T17:18:18.815Z,1.15
2023-11-04T17:20:46.957Z,1.08
2023-11-04T17:23:15.298Z,0.90
2023-11-04T17:25:43.638Z,1.00
2023-11-04T17:28:11.709Z,0.88
2023-11-04T17:30:39.879Z,0.90
2023-11-04T17:33:08.168Z,0.63
2023-11-04T17:35:36.297Z,0.80
2023-11-04T17:38:04.471Z,1.02
2023-11-04T17:40:32.477Z,1.00
2023-11-04T17:43:00.624Z,1.00
2023-11-04T17:45:28.811Z,0.90
2023-11-04T17:47:57.327Z,0.70
2023-11-04T17:50:25.593Z,1.00
2023-11-04T17:52:53.876Z,0.80
2023-11-04T17:55:22.125Z,0.88
2023-11-04T17:57:50.338Z,0.82
2023-11-04T18:00:18.846Z,0.70
2023-11-04T18:02:48.452Z,0.85
2023-11-04T18:05:16.643Z,0.75
2023-11-04T18:07:44.853Z,0.70
2023-11-04T18:10:14.343Z,0.95
2023-11-04T18:12:42.453Z,0.75
2023-11-04T18:15:10.586Z,0.55
2023-11-04T18:17:38.750Z,0.82
2023-11-04T18:20:07.268Z,1.00
2023-11-04T18:22:36.600Z,1.00
2023-11-04T18:25:04.864Z,1.02
2023-11-04T18:27:45.304Z,1.05
2023-11-04T18:30:19.740Z,1.00
2023-11-04T18:32:47.846Z,1.20
2023-11-04T18:35:16.168Z,1.08
2023-11-04T18:37:44.249Z,0.98
2023-11-04T18:40:12.940Z,1.08
2023-11-04T18:42:41.197Z,1.10
2023-11-04T18:45:09.721Z,1.48
2023-11-04T18:47:37.910Z,1.08
2023-11-04T18:50:06.658Z,1.00
2023-11-04T18:52:35.439Z,1.00
2023-11-04T18:55:03.931Z,0.77
2023-11-04T18:57:32.466Z,0.95
2023-11-04T19:00:00.496Z,1.75
2023-11-04T19:05:14.106Z,2.25
2023-11-04T19:07:42.363Z,2.05
2023-11-04T19:10:11.160Z,1.73
2023-11-04T19:12:39.245Z,0.75
2023-11-04T19:17:53.200Z,1.27
2023-11-04T19:20:21.778Z,0.95
2023-11-04T19:22:49.862Z,1.48
2023-11-04T19:25:18.037Z,0.75
2023-11-04T19:27:46.107Z,1.10
2023-11-04T19:30:14.207Z,0.65
2023-11-04T19:33:01.208Z,0.80
2023-11-04T19:35:29.337Z,1.17
2023-11-04T19:37:57.392Z,1.20
2023-11-04T19:40:26.352Z,0.80
2023-11-04T19:42:55.377Z,0.80
2023-11-04T19:45:23.660Z,0.75
2023-11-04T19:47:53.053Z,0.88
2023-11-04T19:50:21.302Z,0.65
2023-11-04T19:52:49.309Z,1.30
2023-11-04T19:55:19.366Z,1.13
2023-11-04T19:57:52.027Z,0.93
2023-11-04T20:00:20.470Z,1.15
2023-11-04T20:02:48.652Z,1.40
2023-11-04T20:05:17.441Z,0.98
2023-11-04T20:07:45.628Z,1.45
2023-11-04T20:10:13.790Z,0.73
2023-11-04T20:12:41.892Z,0.95
2023-11-04T20:15:10.358Z,0.77
2023-11-04T20:17:38.429Z,1.02
2023-11-04T20:20:09.383Z,1.30
2023-11-04T20:22:37.636Z,1.00
2023-11-04T20:25:06.826Z,0.93
2023-11-04T20:27:35.815Z,0.98
2023-11-04T20:30:04.120Z,1.30
2023-11-04T20:32:32.294Z,0.70
2023-11-04T20:35:00.388Z,1.27
2023-11-04T20:37:28.628Z,1.70
2023-11-04T20:39:56.874Z,1.60
2023-11-04T20:42:24.943Z,1.65
2023-11-04T20:44:54.313Z,1.02
2023-11-04T20:47:23.024Z,1.13
2023-11-04T20:49:51.080Z,1.40
2023-11-04T20:52:19.284Z,1.05
2023-11-04T20:54:47.440Z,0.88
2023-11-04T20:57:16.077Z,1.05
2023-11-04T20:59:44.844Z,1.48
2023-11-04T21:02:12.865Z,1.08
2023-11-04T21:04:41.417Z,0.80
2023-11-04T21:07:09.503Z,0.70
2023-11-04T21:09:37.572Z,0.80
2023-11-04T21:12:06.010Z,1.02
2023-11-04T21:14:34.394Z,0.55
2023-11-04T21:17:02.467Z,1.10
2023-11-04T21:19:30.723Z,1.05
2023-11-04T21:21:58.852Z,0.70
2023-11-04T21:24:26.906Z,0.80
2023-11-04T21:26:55.023Z,0.60
2023-11-04T21:29:23.085Z,0.80
2023-11-04T21:31:54.497Z,0.98
2023-11-04T21:34:22.780Z,0.90
2023-11-04T21:36:50.939Z,0.80
2023-11-04T21:39:27.974Z,0.70
2023-11-04T21:41:57.949Z,0.75
2023-11-04T21:44:26.295Z,0.68
2023-11-04T21:46:54.309Z,1.00
2023-11-04T21:49:22.495Z,0.68
2023-11-04T21:51:50.646Z,0.55
2023-11-04T21:54:18.847Z,1.40
2023-11-04T21:56:47.057Z,0.93
2023-11-04T21:59:15.155Z,0.95
2023-11-04T22:01:43.192Z,0.95
2023-11-04T22:04:11.503Z,0.68
2023-11-04T22:06:39.938Z,0.98
2023-11-04T22:09:08.001Z,0.80
2023-11-04T22:11:36.024Z,0.50
2023-11-04T22:14:05.616Z,0.90
2023-11-04T22:16:33.824Z,0.75
2023-11-04T22:19:02.032Z,0.60
2023-11-04T22:21:30.116Z,0.82
2023-11-04T22:23:58.225Z,0.90
2023-11-04T22:26:26.945Z,0.65
2023-11-04T22:28:55.036Z,1.10
2023-11-04T22:31:23.100Z,1.00
2023-11-04T22:33:51.293Z,0.80
2023-11-04T22:36:19.284Z,0.80
2023-11-04T22:38:47.526Z,1.08
2023-11-04T22:41:15.617Z,0.73
2023-11-04T22:44:02.166Z,0.80
2023-11-04T22:46:30.260Z,0.50
2023-11-04T22:48:58.886Z,0.77
2023-11-04T22:51:27.088Z,1.00
2023-11-04T22:53:55.456Z,0.82
2023-11-04T22:56:23.648Z,1.00
2023-11-04T22:58:51.787Z,0.68
2023-11-04T23:04:07.837Z,1.00
2023-11-04T23:06:36.061Z,0.82
2023-11-04T23:09:07.465Z,0.88
2023-11-04T23:11:38.265Z,0.90
2023-11-04T23:14:06.562Z,0.80
2023-11-04T23:16:34.668Z,1.10
2023-11-04T23:19:21.138Z,1.35
2023-11-04T23:21:49.249Z,1.00
2023-11-04T23:24:17.306Z,0.80
2023-11-04T23:27:05.892Z,0.60
2023-11-04T23:29:34.550Z,1.27
2023-11-04T23:32:02.544Z,1.10
2023-11-04T23:34:30.639Z,0.93
2023-11-04T23:36:58.653Z,0.90
2023-11-04T23:39:26.699Z,1.00
2023-11-04T23:41:54.737Z,1.10
2023-11-04T23:44:42.083Z,0.68
2023-11-04T23:47:10.740Z,0.50
2023-11-04T23:49:41.413Z,0.90
2023-11-04T23:52:09.915Z,1.02
2023-11-04T23:54:37.962Z,1.05
2023-11-04T23:57:06.116Z,0.98
2023-11-04T23:59:35.390Z,1.10
